Time;durP1;ratioP1;P1;durP2;ratioP2;P2;SDS_P1;SDS_P2;PMS_P1;PMS_P2;Temp;Humidity;BMP_temperature;BMP_pressure;BME280_temperature;BME280_humidity;BME280_pressure;Samples;Min_cycle;Max_cycle;Signal;HPM_P1;HPM_P2
2022/04/24 00:00:49;;;;;;;;;16.75;15.75;;;;;17.96;49.79;99268.97;2097575;27;47617;-59
2022/04/24 00:01:49;;;;;;;;;17.50;16.50;;;;;17.95;49.55;99261.91;2101547;28;47339;-59
2022/04/24 00:02:50;;;;;;;;;11.50;11.50;;;;;17.96;49.70;99268.13;2099094;28;47639;-60
2022/04/24 00:03:50;;;;;;;;;16.00;16.00;;;;;17.95;49.79;99261.91;2098092;28;47391;-60
2022/04/24 00:04:50;;;;;;;;;16.75;16.25;;;;;17.94;49.64;99257.50;2102483;28;47600;-59
2022/04/24 00:05:51;;;;;;;;;16.00;16.00;;;;;17.94;49.56;99265.56;2097703;28;47890;-60
2022/04/24 00:06:53;;;;;;;;;18.25;18.00;;;;;17.94;49.48;99263.72;2100951;27;47372;-59
2022/04/24 00:07:53;;;;;;;;;18.80;17.80;;;;;17.94;49.92;99265.56;2101330;28;48036;-59
2022/04/24 00:08:55;;;;;;;;;15.00;14.25;;;;;17.92;49.86;99259.47;2097687;27;47961;-60
2022/04/24 00:09:55;;;;;;;;;15.40;15.40;;;;;17.91;49.56;99263.09;2101992;27;47415;-59
2022/04/24 00:10:56;;;;;;;;;18.00;17.25;;;;;17.89;49.83;99263.19;2099763;28;47092;-59
2022/04/24 00:11:57;;;;;;;;;19.25;17.75;;;;;17.89;49.97;99257.84;2098953;27;47358;-60
2022/04/24 00:12:58;;;;;;;;;13.20;13.20;;;;;17.89;49.76;99265.88;2103968;27;47791;-60
2022/04/24 00:13:59;;;;;;;;;19.75;18.50;;;;;17.88;49.89;99255.28;2104949;27;47256;-59
2022/04/24 00:14:59;;;;;;;;;16.50;16.00;;;;;17.88;50.04;99253.44;2095762;28;47970;-59
2022/04/24 00:15:59;;;;;;;;;19.00;19.00;;;;;17.86;50.14;99249.16;2101295;28;47908;-58
2022/04/24 00:17:00;;;;;;;;;17.00;17.00;;;;;17.87;49.91;99249.03;2097233;27;47390;-58
2022/04/24 00:18:01;;;;;;;;;17.50;16.75;;;;;17.86;49.92;99246.47;2104058;27;47198;-58
2022/04/24 00:19:02;;;;;;;;;21.60;19.00;;;;;17.86;49.71;99257.22;2099318;28;47455;-59
2022/04/24 00:20:03;;;;;;;;;17.75;17.50;;;;;17.84;50.16;99254.66;2100044;28;47451;-59
2022/04/24 00:21:05;;;;;;;;;18.00;17.60;;;;;17.86;50.13;99254.53;2103281;28;47281;-59
2022/04/24 00:22:06;;;;;;;;;16.60;16.60;;;;;17.85;49.92;99253.69;2099721;27;47646;-58
2022/04/24 00:23:06;;;;;;;;;18.00;17.25;;;;;17.85;50.04;99250.13;2103079;27;48157;-59
2022/04/24 00:24:08;;;;;;;;;17.00;17.00;;;;;17.84;50.02;99257.34;2103358;28;47622;-58
2022/04/24 00:25:08;;;;;;;;;17.00;16.00;;;;;17.82;50.15;99250.38;2101147;27;48076;-59
2022/04/24 00:26:09;;;;;;;;;19.00;18.00;;;;;17.80;50.21;99253.19;2098308;27;47592;-59
2022/04/24 00:27:09;;;;;;;;;16.50;16.50;;;;;17.79;50.27;99254.16;2099245;28;47397;-59
2022/04/24 00:28:10;;;;;;;;;16.75;16.50;;;;;17.79;50.00;99247.94;2101716;27;47231;-58
2022/04/24 00:29:10;;;;;;;;;16.75;16.75;;;;;17.76;49.82;99251.69;2102530;28;47359;-60
2022/04/24 00:30:11;;;;;;;;;21.50;18.75;;;;;17.75;50.10;99249.97;2088708;28;47855;-58
2022/04/24 00:31:12;;;;;;;;;17.20;16.60;;;;;17.74;50.16;99242.88;2087601;28;47292;-59
2022/04/24 00:32:12;;;;;;;;;18.00;17.25;;;;;17.72;50.47;99242.16;2101276;28;47500;-59
2022/04/24 00:33:13;;;;;;;;;16.25;16.00;;;;;17.72;50.42;99249.34;2099777;27;48021;-57
2022/04/24 00:34:13;;;;;;;;;15.75;15.00;;;;;17.71;50.64;99250.31;2103814;28;47597;-59
2022/04/24 00:35:13;;;;;;;;;19.75;18.00;;;;;17.69;50.54;99247.75;2099196;28;47864;-58
2022/04/24 00:36:14;;;;;;;;;17.00;16.00;;;;;17.68;50.55;99248.69;2101725;27;47707;-58
2022/04/24 00:37:14;;;;;;;;;19.75;19.50;;;;;17.68;50.24;99242.47;2102756;28;47684;-58
2022/04/24 00:38:15;;;;;;;;;17.25;16.25;;;;;17.66;50.22;99245.28;2088944;28;47297;-58
2022/04/24 00:39:15;;;;;;;;;19.00;15.00;;;;;17.64;50.19;99248.03;2093594;28;47610;-57
2022/04/24 00:40:18;;;;;;;;;17.00;17.00;;;;;17.63;50.49;99245.47;2096439;28;47593;-58
2022/04/24 00:41:19;;;;;;;;;18.40;17.60;;;;;17.61;50.52;99253.63;2088916;28;48050;-59
2022/04/24 00:42:19;;;;;;;;;17.50;17.25;;;;;17.60;50.34;99248.41;2104718;28;47625;-59
2022/04/24 00:43:20;;;;;;;;;18.25;17.75;;;;;17.59;50.47;99255.59;2103446;27;47714;-58
2022/04/24 00:44:20;;;;;;;;;12.00;11.75;;;;;17.58;50.61;99253.88;2105113;27;46344;-59
2022/04/24 00:45:21;;;;;;;;;20.75;18.00;;;;;17.57;50.64;99254.84;2103940;27;47210;-59
2022/04/24 00:46:38;;;;;;;;;17.00;17.00;;;;;17.57;50.67;99254.00;2101832;27;47792;-59
2022/04/24 00:47:41;;;;;;;;;19.60;19.60;;;;;17.55;50.70;99254.09;2099823;27;48564;-58
2022/04/24 00:48:43;;;;;;;;;18.60;16.20;;;;;17.53;50.52;99255.16;2102968;28;47841;-58
2022/04/24 00:49:45;;;;;;;;;17.20;17.00;;;;;17.52;50.64;99256.13;2102932;28;48481;-58
2022/04/24 00:50:46;;;;;;;;;20.60;18.40;;;;;17.49;50.31;99257.22;2104896;28;47734;-59
2022/04/24 00:51:47;;;;;;;;;19.40;18.80;;;;;17.46;50.60;99257.47;2104160;27;47797;-57
2022/04/24 00:52:48;;;;;;;;;15.25;15.25;;;;;17.44;50.45;99259.41;2104410;27;48122;-58
2022/04/24 00:53:48;;;;;;;;;20.75;20.00;;;;;17.45;50.75;99260.25;2105452;27;48092;-58
2022/04/24 00:54:50;;;;;;;;;17.25;16.50;;;;;17.43;50.57;99255.00;2104357;27;47947;-60
2022/04/24 00:55:51;;;;;;;;;20.60;20.40;;;;;17.41;50.65;99256.94;2104682;27;47468;-56
2022/04/24 00:56:52;;;;;;;;;18.20;16.60;;;;;17.39;50.74;99261.53;2105261;28;47704;-57
2022/04/24 00:57:52;;;;;;;;;19.25;17.50;;;;;17.38;50.37;99261.66;2104165;27;48056;-59
2022/04/24 00:58:53;;;;;;;;;19.75;17.75;;;;;17.36;50.69;99262.63;2095616;28;47542;-58
2022/04/24 00:59:53;;;;;;;;;19.75;18.75;;;;;17.35;50.85;99257.38;2094299;28;47642;-58
2022/04/24 01:00:56;;;;;;;;;21.00;18.75;;;;;17.35;50.88;99260.06;2104126;28;48048;-58
2022/04/24 01:01:57;;;;;;;;;23.20;22.20;;;;;17.34;50.48;99261.03;2104557;28;47272;-59
2022/04/24 01:02:59;;;;;;;;;18.00;18.00;;;;;17.34;50.75;99266.41;2103536;28;47905;-59
2022/04/24 01:04:01;;;;;;;;;15.80;15.80;;;;;17.33;50.73;99265.53;2103951;27;48009;-59
2022/04/24 01:05:02;;;;;;;;;17.00;17.00;;;;;17.32;50.80;99266.50;2104703;28;47290;-59
2022/04/24 01:06:03;;;;;;;;;18.00;16.75;;;;;17.31;51.05;99264.81;2103630;28;47599;-59
2022/04/24 01:07:04;;;;;;;;;18.75;17.00;;;;;17.29;50.59;99271.25;2105287;27;47424;-60
2022/04/24 01:08:05;;;;;;;;;21.60;19.80;;;;;17.27;51.00;99265.09;2104361;28;47244;-59
2022/04/24 01:09:11;;;;;;;;;19.25;19.25;;;;;17.25;51.00;99265.22;2104214;27;47957;-59
2022/04/24 01:10:12;;;;;;;;;16.00;15.40;;;;;17.24;50.82;99262.66;2105050;27;47642;-59
2022/04/24 01:11:12;;;;;;;;;13.75;13.25;;;;;17.23;51.14;99269.00;2104260;27;47749;-59
2022/04/24 01:12:13;;;;;;;;;19.00;17.25;;;;;17.23;50.75;99263.63;2092225;28;47797;-59
2022/04/24 01:13:13;;;;;;;;;26.25;24.25;;;;;17.22;51.08;99262.78;2079218;28;47786;-59
2022/04/24 01:14:17;;;;;;;;;19.25;19.25;;;;;17.19;50.87;99265.69;2097627;28;47543;-58
2022/04/24 01:15:18;;;;;;;;;19.80;19.80;;;;;17.20;50.99;99271.91;2096414;28;47590;-58
2022/04/24 01:16:18;;;;;;;;;18.00;18.00;;;;;17.17;50.90;99264.94;2105553;27;47646;-58
2022/04/24 01:17:19;;;;;;;;;16.25;16.00;;;;;17.16;51.19;99268.59;2092076;28;47404;-58
2022/04/24 01:18:20;;;;;;;;;24.50;21.25;;;;;17.15;51.11;99266.88;2095917;28;47439;-58
2022/04/24 01:19:20;;;;;;;;;19.00;18.25;;;;;17.15;50.74;99271.34;2105132;28;47496;-59
2022/04/24 01:20:21;;;;;;;;;15.00;15.00;;;;;17.13;51.11;99271.47;2104292;27;47333;-59
2022/04/24 01:21:22;;;;;;;;;17.75;17.75;;;;;17.11;51.02;99272.56;2105553;27;47312;-58
2022/04/24 01:22:22;;;;;;;;;18.50;18.50;;;;;17.09;51.30;99264.63;2104334;27;47745;-58
2022/04/24 01:23:22;;;;;;;;;21.75;18.50;;;;;17.08;51.35;99272.78;2104056;27;47323;-58
2022/04/24 01:24:25;;;;;;;;;18.00;18.00;;;;;17.08;51.06;99276.31;2105571;27;47656;-59
2022/04/24 01:25:25;;;;;;;;;19.00;18.00;;;;;17.05;51.12;99281.91;2102689;27;47521;-59
2022/04/24 01:26:26;;;;;;;;;20.75;18.75;;;;;17.04;51.29;99283.72;2096873;28;47435;-58
2022/04/24 01:27:26;;;;;;;;;17.75;17.25;;;;;17.03;51.30;99283.84;2101498;28;47171;-59
2022/04/24 01:28:27;;;;;;;;;14.50;14.50;;;;;17.02;50.85;99285.66;2091725;28;48258;-57
2022/04/24 01:29:27;;;;;;;;;18.50;17.25;;;;;17.00;51.34;99284.88;2095247;28;48202;-58
2022/04/24 01:30:27;;;;;;;;;17.00;17.00;;;;;16.98;51.02;99278.78;2101324;28;47696;-59
2022/04/24 01:31:28;;;;;;;;;17.75;17.00;;;;;16.99;51.41;99285.00;2103414;28;48439;-57
2022/04/24 01:32:28;;;;;;;;;17.00;17.00;;;;;16.98;50.99;99286.81;2103219;28;48006;-60
2022/04/24 01:33:29;;;;;;;;;16.50;16.50;;;;;16.96;50.92;99287.91;2100839;27;47716;-58
2022/04/24 01:34:29;;;;;;;;;20.50;16.75;;;;;16.95;51.05;99289.72;2105137;27;48684;-59
2022/04/24 01:35:30;;;;;;;;;19.25;19.25;;;;;16.94;51.27;99289.84;2101335;28;47766;-58
2022/04/24 01:36:31;;;;;;;;;19.20;18.40;;;;;16.91;51.20;99288.25;2101880;27;47773;-59
2022/04/24 01:37:31;;;;;;;;;18.25;18.25;;;;;16.90;51.26;99294.56;2104925;28;47360;-60
2022/04/24 01:38:33;;;;;;;;;15.25;15.25;;;;;16.89;51.14;99287.47;2101425;27;47413;-61
2022/04/24 01:39:33;;;;;;;;;18.00;17.00;;;;;16.88;51.35;99288.44;2105161;27;48114;-58
2022/04/24 01:40:34;;;;;;;;;17.50;17.50;;;;;16.87;51.71;99285.88;2098388;28;47995;-55
2022/04/24 01:41:35;;;;;;;;;19.25;18.50;;;;;16.85;51.28;99291.34;2096988;28;47500;-59
2022/04/24 01:42:35;;;;;;;;;16.00;16.00;;;;;16.83;51.15;99293.25;2096987;28;47683;-58
2022/04/24 01:43:39;;;;;;;;;17.00;16.50;;;;;16.83;51.52;99292.41;2100804;28;47764;-59
2022/04/24 01:44:40;;;;;;;;;20.20;19.80;;;;;16.82;51.83;99294.22;2113493;27;47999;-59
2022/04/24 01:45:40;;;;;;;;;17.75;16.75;;;;;16.81;51.85;99289.00;2105400;27;47535;-58
2022/04/24 01:46:40;;;;;;;;;17.75;16.75;;;;;16.80;51.55;99289.97;2097944;28;48064;-58
2022/04/24 01:47:41;;;;;;;;;18.00;18.00;;;;;16.79;51.77;99293.59;2096586;28;47551;-59
2022/04/24 01:48:41;;;;;;;;;19.50;19.50;;;;;16.77;51.84;99291.03;2097655;28;47752;-58
2022/04/24 01:49:42;;;;;;;;;15.25;15.25;;;;;16.76;51.74;99286.59;2097782;28;47706;-57
2022/04/24 01:50:42;;;;;;;;;21.25;21.25;;;;;16.74;51.76;99284.03;2104361;28;47102;-58
2022/04/24 01:51:44;;;;;;;;;19.00;18.25;;;;;16.72;51.68;99288.66;2105843;27;47841;-58
2022/04/24 01:52:45;;;;;;;;;16.20;16.00;;;;;16.73;52.09;99286.84;2096465;28;47825;-60
2022/04/24 01:53:46;;;;;;;;;20.80;18.80;;;;;16.72;51.71;99293.16;2096502;28;47801;-57
2022/04/24 01:54:46;;;;;;;;;14.50;14.50;;;;;16.72;51.55;99293.16;2097719;28;47524;-57
2022/04/24 01:55:47;;;;;;;;;19.50;18.50;;;;;16.70;51.82;99297.75;2096541;28;47664;-59
2022/04/24 01:56:47;;;;;;;;;18.75;16.75;;;;;16.69;52.11;99293.38;2097498;28;47684;-59
2022/04/24 01:57:48;;;;;;;;;15.75;15.75;;;;;16.68;52.12;99294.34;2097865;28;47512;-58
2022/04/24 01:58:48;;;;;;;;;20.50;19.75;;;;;16.67;52.15;99292.59;2095953;28;48133;-58
2022/04/24 01:59:49;;;;;;;;;17.00;17.00;;;;;16.66;52.33;99294.41;2088147;28;47702;-59
2022/04/24 02:00:49;;;;;;;;;17.50;17.50;;;;;16.67;51.82;99298.84;2087131;28;47398;-58
2022/04/24 02:01:50;;;;;;;;;19.50;19.50;;;;;16.67;52.12;99300.63;2097213;28;47131;-58
2022/04/24 02:02:51;;;;;;;;;18.75;18.25;;;;;16.66;52.14;99298.91;2100022;28;47511;-58
2022/04/24 02:03:51;;;;;;;;;18.20;18.20;;;;;16.63;52.13;99294.59;2104853;27;47546;-59
2022/04/24 02:04:52;;;;;;;;;17.75;17.75;;;;;16.62;51.69;99300.06;2098795;27;47816;-57
2022/04/24 02:05:52;;;;;;;;;16.50;16.50;;;;;16.62;52.12;99305.44;2097581;28;47478;-60
2022/04/24 02:06:53;;;;;;;;;18.50;18.50;;;;;16.61;51.97;99298.38;2096142;28;47756;-57
2022/04/24 02:07:53;;;;;;;;;17.75;17.75;;;;;16.60;52.00;99300.19;2097774;28;48238;-58
2022/04/24 02:08:53;;;;;;;;;15.75;15.25;;;;;16.60;52.03;99310.91;2096713;28;47491;-57
2022/04/24 02:09:54;;;;;;;;;19.75;18.25;;;;;16.60;52.09;99302.88;2097126;27;47895;-60
2022/04/24 02:10:54;;;;;;;;;18.75;18.25;;;;;16.60;52.00;99300.19;2097582;28;47806;-59
2022/04/24 02:11:55;;;;;;;;;17.25;17.25;;;;;16.61;52.05;99309.94;2096429;28;48222;-60
2022/04/24 02:12:55;;;;;;;;;18.50;18.50;;;;;16.60;51.62;99305.53;2095599;28;47868;-58
2022/04/24 02:13:56;;;;;;;;;16.00;16.00;;;;;16.61;52.11;99301.91;2095610;28;47232;-58
2022/04/24 02:14:57;;;;;;;;;19.00;18.00;;;;;16.62;51.69;99303.59;2095217;28;47772;-59
2022/04/24 02:15:57;;;;;;;;;19.00;19.00;;;;;16.63;51.76;99315.19;2097543;28;47976;-57
2022/04/24 02:16:58;;;;;;;;;17.25;15.75;;;;;16.61;52.07;99299.22;2097094;28;47514;-57
2022/04/24 02:17:58;;;;;;;;;19.00;17.00;;;;;16.63;52.13;99304.47;2096805;28;47402;-57
2022/04/24 02:18:59;;;;;;;;;16.50;15.75;;;;;16.62;51.88;99306.28;2097292;28;48084;-58
2022/04/24 02:20:00;;;;;;;;;20.75;20.75;;;;;16.62;52.04;99308.09;2096583;28;47870;-59
2022/04/24 02:21:00;;;;;;;;;16.50;16.50;;;;;16.61;51.93;99311.75;2097100;27;47663;-59
2022/04/24 02:22:00;;;;;;;;;17.50;17.00;;;;;16.60;51.69;99318.94;2097343;28;47491;-60
2022/04/24 02:23:02;;;;;;;;;18.75;18.75;;;;;16.60;52.12;99310.03;2096360;28;46689;-59
2022/04/24 02:24:02;;;;;;;;;18.80;18.40;;;;;16.60;51.96;99305.53;2096884;28;47581;-59
2022/04/24 02:25:04;;;;;;;;;17.00;17.00;;;;;16.58;51.92;99315.50;2079152;28;45742;-59
2022/04/24 02:26:04;;;;;;;;;18.80;17.20;;;;;16.58;51.83;99315.50;2076863;28;48069;-59
2022/04/24 02:27:05;;;;;;;;;21.00;20.00;;;;;16.57;52.24;99316.47;2085477;28;47836;-59
2022/04/24 02:28:06;;;;;;;;;19.25;19.00;;;;;16.56;51.73;99312.09;2105022;27;48076;-59
2022/04/24 02:29:06;;;;;;;;;17.50;16.50;;;;;16.55;52.21;99317.53;2102915;27;46818;-58
2022/04/24 02:30:08;;;;;;;;;18.00;17.75;;;;;16.54;51.76;99313.16;2103182;27;47761;-59
2022/04/24 02:31:08;;;;;;;;;20.60;20.60;;;;;16.52;52.33;99315.09;2104851;27;47925;-59
2022/04/24 02:32:09;;;;;;;;;18.25;17.75;;;;;16.52;51.86;99323.13;2102914;27;47274;-55
2022/04/24 02:33:09;;;;;;;;;18.60;18.60;;;;;16.51;51.83;99319.56;2104779;27;47599;-59
2022/04/24 02:34:10;;;;;;;;;22.00;19.50;;;;;16.51;52.11;99321.38;2103510;28;47541;-59
2022/04/24 02:35:12;;;;;;;;;16.00;15.00;;;;;16.51;51.77;99316.88;2103504;27;47812;-60
2022/04/24 02:36:12;;;;;;;;;16.00;16.00;;;;;16.51;51.60;99319.56;2104739;27;48291;-59
2022/04/24 02:37:13;;;;;;;;;16.50;16.50;;;;;16.49;52.04;99321.47;2103422;27;47863;-57
2022/04/24 02:38:13;;;;;;;;;11.50;11.50;;;;;16.47;51.71;99320.72;2103065;27;47548;-59
2022/04/24 02:39:14;;;;;;;;;16.25;16.25;;;;;16.46;52.15;99321.69;2095236;28;47382;-58
2022/04/24 02:40:17;;;;;;;;;20.00;18.00;;;;;16.44;51.96;99319.13;2090972;28;47378;-58
2022/04/24 02:41:17;;;;;;;;;16.40;16.40;;;;;16.44;51.70;99319.13;2094586;28;47841;-59
2022/04/24 02:42:18;;;;;;;;;18.75;17.75;;;;;16.43;51.72;99324.59;2096478;28;48134;-59
2022/04/24 02:43:19;;;;;;;;;17.50;17.50;;;;;16.42;52.00;99320.19;2098190;28;47569;-59
2022/04/24 02:44:19;;;;;;;;;15.00;15.00;;;;;16.39;51.69;99321.28;2095687;28;48032;-60
2022/04/24 02:45:20;;;;;;;;;18.00;17.75;;;;;16.38;51.86;99324.88;2097403;27;47757;-58
2022/04/24 02:46:20;;;;;;;;;17.00;17.00;;;;;16.37;51.96;99323.16;2097111;28;47522;-59
2022/04/24 02:47:21;;;;;;;;;16.50;16.25;;;;;16.35;51.97;99319.75;2083907;28;46292;-60
2022/04/24 02:48:22;;;;;;;;;18.25;16.75;;;;;16.34;51.87;99328.75;2084739;28;48052;-60
2022/04/24 02:49:22;;;;;;;;;17.40;17.40;;;;;16.34;51.94;99325.19;2096442;28;47672;-59
2022/04/24 02:50:23;;;;;;;;;18.75;17.25;;;;;16.32;51.75;99322.63;2098036;28;46667;-59
2022/04/24 02:51:24;;;;;;;;;15.50;15.50;;;;;16.30;51.89;99324.56;2098101;28;47720;-60
2022/04/24 02:52:24;;;;;;;;;17.25;16.25;;;;;16.29;51.66;99319.31;2096081;28;47991;-59
2022/04/24 02:53:25;;;;;;;;;18.00;17.25;;;;;16.29;51.66;99330.03;2098217;28;48185;-59
2022/04/24 02:54:25;;;;;;;;;15.25;15.25;;;;;16.28;52.19;99325.63;2097735;28;47867;-59
2022/04/24 02:55:26;;;;;;;;;18.75;18.00;;;;;16.29;51.79;99335.38;2096647;27;46745;-59
2022/04/24 02:56:26;;;;;;;;;17.00;16.00;;;;;16.25;51.67;99334.69;2098228;28;48022;-59
2022/04/24 02:57:28;;;;;;;;;21.25;18.00;;;;;16.26;51.77;99333.78;2095715;28;47807;-59
2022/04/24 02:58:28;;;;;;;;;15.00;15.00;;;;;16.24;51.91;99329.47;2097301;28;47781;-59
2022/04/24 02:59:29;;;;;;;;;19.00;19.00;;;;;16.25;52.09;99332.03;2096731;28;47243;-59
2022/04/24 03:00:41;;;;;;;;;14.00;14.00;;;;;16.24;51.76;99329.47;2094988;28;47674;-59
2022/04/24 03:01:42;;;;;;;;;15.60;14.60;;;;;16.23;51.80;99331.28;2097847;27;47930;-58
2022/04/24 03:02:44;;;;;;;;;15.20;15.20;;;;;16.23;51.89;99328.59;2106657;27;47520;-59
2022/04/24 03:03:45;;;;;;;;;17.00;16.80;;;;;16.24;52.08;99340.16;2111888;27;48159;-59
2022/04/24 03:04:45;;;;;;;;;21.00;19.50;;;;;16.23;52.08;99327.75;2098935;27;47794;-58
2022/04/24 03:05:49;;;;;;;;;19.75;18.00;;;;;16.23;52.15;99333.94;2097972;28;47734;-59
2022/04/24 03:06:50;;;;;;;;;18.60;18.40;;;;;16.23;51.78;99338.44;2096001;28;47772;-57
2022/04/24 03:07:51;;;;;;;;;17.00;15.75;;;;;16.23;51.72;99331.28;2097949;28;47823;-59
2022/04/24 03:08:51;;;;;;;;;16.20;16.20;;;;;16.22;52.25;99331.38;2079347;28;47671;-59
2022/04/24 03:09:52;;;;;;;;;16.50;15.50;;;;;16.22;51.70;99332.25;2070977;28;47431;-58
2022/04/24 03:10:52;;;;;;;;;16.75;16.75;;;;;16.22;51.78;99331.38;2097500;28;48208;-58
2022/04/24 03:11:53;;;;;;;;;17.25;15.75;;;;;16.21;51.69;99330.53;2096372;28;48120;-58
2022/04/24 03:12:53;;;;;;;;;19.50;18.25;;;;;16.21;51.77;99333.19;2096474;28;47395;-57
2022/04/24 03:13:53;;;;;;;;;20.00;17.50;;;;;16.20;51.99;99334.16;2088503;28;47724;-60
2022/04/24 03:14:54;;;;;;;;;18.00;18.00;;;;;16.19;52.12;99332.44;2086795;28;47958;-57
2022/04/24 03:15:54;;;;;;;;;21.75;20.75;;;;;16.16;52.15;99327.31;2097570;28;47792;-59
2022/04/24 03:16:55;;;;;;;;;15.75;15.25;;;;;16.15;51.55;99336.31;2097590;28;47987;-59
2022/04/24 03:17:55;;;;;;;;;17.00;16.00;;;;;16.14;52.00;99334.59;2096855;27;47581;-57
2022/04/24 03:18:55;;;;;;;;;17.50;16.25;;;;;16.14;51.90;99332.78;2098569;28;48153;-58
2022/04/24 03:19:56;;;;;;;;;17.25;17.25;;;;;16.12;52.11;99331.97;2096036;28;47538;-55
2022/04/24 03:20:56;;;;;;;;;18.00;15.25;;;;;16.13;51.79;99332.84;2098164;28;47273;-58
2022/04/24 03:21:57;;;;;;;;;15.75;15.75;;;;;16.11;52.00;99335.63;2088977;28;47452;-57
2022/04/24 03:22:57;;;;;;;;;20.25;18.50;;;;;16.09;52.06;99337.56;2094845;28;47480;-57
2022/04/24 03:23:58;;;;;;;;;16.75;16.75;;;;;16.07;52.24;99336.81;2100112;28;46318;-58
2022/04/24 03:24:58;;;;;;;;;17.75;17.00;;;;;16.07;52.18;99334.13;2097373;28;48069;-59
2022/04/24 03:25:58;;;;;;;;;16.00;15.75;;;;;16.07;51.86;99338.63;2096808;27;47464;-58
2022/04/24 03:26:59;;;;;;;;;15.00;15.00;;;;;16.04;51.66;99338.81;2095311;28;48090;-58
2022/04/24 03:27:59;;;;;;;;;15.75;15.75;;;;;16.04;52.09;99344.19;2102652;28;47681;-58
2022/04/24 03:29:00;;;;;;;;;19.00;19.00;;;;;16.00;52.10;99335.47;2102719;28;47352;-56
2022/04/24 03:30:00;;;;;;;;;18.25;18.00;;;;;16.00;52.20;99340.81;2104255;27;47816;-59
2022/04/24 03:31:02;;;;;;;;;18.60;18.20;;;;;15.99;51.99;99335.56;2104385;27;47509;-58
2022/04/24 03:32:02;;;;;;;;;17.80;17.80;;;;;15.99;52.38;99340.94;2102279;28;47561;-57
2022/04/24 03:33:03;;;;;;;;;18.00;17.25;;;;;15.98;51.83;99341.88;2094522;28;47447;-58
2022/04/24 03:34:05;;;;;;;;;20.75;18.75;;;;;15.98;52.11;99344.56;2101507;28;48109;-58
2022/04/24 03:35:09;;;;;;;;;19.20;17.20;;;;;15.98;51.83;99341.88;2102962;27;48375;-59
2022/04/24 03:36:09;;;;;;;;;18.40;18.40;;;;;15.97;51.84;99345.53;2104092;27;47753;-58
2022/04/24 03:37:09;;;;;;;;;15.75;14.75;;;;;15.95;52.23;99348.31;2103170;27;47963;-58
2022/04/24 03:38:10;;;;;;;;;23.00;22.25;;;;;15.93;52.05;99336.84;2102975;27;47145;-58
2022/04/24 03:39:10;;;;;;;;;20.75;20.75;;;;;15.91;52.35;99352.16;2104508;27;47869;-59
2022/04/24 03:40:11;;;;;;;;;19.75;19.75;;;;;15.92;52.28;99344.97;2101010;27;47397;-58
2022/04/24 03:41:11;;;;;;;;;20.75;20.25;;;;;15.90;52.64;99350.44;2095908;28;47568;-58
2022/04/24 03:42:12;;;;;;;;;19.50;17.75;;;;;15.87;52.23;99343.44;2097344;28;47478;-58
2022/04/24 03:43:12;;;;;;;;;20.50;20.00;;;;;15.89;52.46;99354.06;2097165;28;47522;-59
2022/04/24 03:44:13;;;;;;;;;19.25;18.25;;;;;15.87;52.14;99348.78;2087815;28;47890;-58
2022/04/24 03:45:13;;;;;;;;;20.75;19.00;;;;;15.87;52.55;99348.78;2094076;28;47510;-59
2022/04/24 03:46:14;;;;;;;;;18.00;18.00;;;;;15.87;51.97;99347.94;2095833;28;47830;-58
2022/04/24 03:47:14;;;;;;;;;19.75;18.75;;;;;15.86;52.37;99351.56;2096857;27;47628;-59
2022/04/24 03:48:15;;;;;;;;;20.00;19.75;;;;;15.84;52.33;99349.00;2097491;28;47144;-58
2022/04/24 03:49:16;;;;;;;;;20.80;18.80;;;;;15.83;52.57;99352.63;2095930;28;47589;-55
2022/04/24 03:50:16;;;;;;;;;17.00;16.00;;;;;15.83;52.40;99352.63;2097488;28;47781;-59
2022/04/24 03:51:17;;;;;;;;;18.50;17.00;;;;;15.83;52.10;99357.13;2096648;28;47479;-58
2022/04/24 03:52:17;;;;;;;;;19.00;18.75;;;;;15.82;52.76;99353.59;2095478;28;47532;-58
2022/04/24 03:53:18;;;;;;;;;15.25;15.25;;;;;15.81;52.62;99351.03;2101242;28;47363;-56
2022/04/24 03:54:18;;;;;;;;;17.50;17.50;;;;;15.81;52.13;99345.69;2104330;27;47601;-59
2022/04/24 03:55:19;;;;;;;;;18.00;17.00;;;;;15.80;52.21;99346.63;2096716;27;47225;-58
2022/04/24 03:56:19;;;;;;;;;20.25;20.25;;;;;15.79;51.96;99344.94;2097103;28;47946;-59
2022/04/24 03:57:20;;;;;;;;;19.25;17.50;;;;;15.77;52.51;99342.34;2085996;28;48224;-59
2022/04/24 03:58:20;;;;;;;;;19.00;18.25;;;;;15.79;52.08;99353.81;2087515;28;47777;-58
2022/04/24 03:59:21;;;;;;;;;16.50;16.50;;;;;15.79;52.30;99351.13;2104644;27;47393;-58
2022/04/24 04:00:21;;;;;;;;;17.25;17.25;;;;;15.78;52.56;99349.41;2102328;28;47110;-57
2022/04/24 04:01:22;;;;;;;;;20.50;17.25;;;;;15.77;52.51;99339.69;2102541;28;47277;-58
2022/04/24 04:02:23;;;;;;;;;20.75;19.00;;;;;15.77;52.05;99342.34;2103394;28;48001;-58
2022/04/24 04:03:23;;;;;;;;;19.50;18.25;;;;;15.78;52.36;99349.41;2102985;27;47898;-58
2022/04/24 04:04:25;;;;;;;;;17.75;16.75;;;;;15.78;52.78;99359.25;2095074;28;47599;-57
2022/04/24 04:05:25;;;;;;;;;20.40;20.20;;;;;15.77;52.71;99361.06;2090833;28;47766;-58
2022/04/24 04:06:26;;;;;;;;;17.00;15.00;;;;;15.78;52.29;99362.78;2094926;28;47789;-55
2022/04/24 04:07:27;;;;;;;;;17.75;17.75;;;;;15.79;52.50;99363.66;2102023;28;47815;-58
2022/04/24 04:08:28;;;;;;;;;21.60;18.60;;;;;15.79;52.55;99366.31;2103271;28;47714;-58
2022/04/24 04:09:28;;;;;;;;;16.25;15.75;;;;;15.81;52.58;99373.28;2094800;28;48395;-58
2022/04/24 04:10:28;;;;;;;;;17.00;16.00;;;;;15.81;52.54;99365.25;2094763;28;47602;-57
2022/04/24 04:11:29;;;;;;;;;19.25;18.75;;;;;15.82;52.53;99374.16;2103106;28;48145;-59
2022/04/24 04:12:29;;;;;;;;;17.00;17.00;;;;;15.82;52.62;99376.81;2100177;28;47940;-58
2022/04/24 04:13:30;;;;;;;;;20.00;19.00;;;;;15.83;52.24;99370.50;2098292;28;47581;-57
2022/04/24 04:14:30;;;;;;;;;19.75;19.00;;;;;15.83;52.69;99373.19;2103531;28;47979;-58
2022/04/24 04:15:32;;;;;;;;;21.00;19.75;;;;;15.82;51.94;99363.44;2103269;28;47652;-59
2022/04/24 04:16:33;;;;;;;;;18.20;18.20;;;;;15.81;52.21;99372.44;2103125;28;47638;-59
2022/04/24 04:17:33;;;;;;;;;18.60;18.60;;;;;15.80;52.02;99365.38;2103340;28;47687;-57
2022/04/24 04:18:34;;;;;;;;;21.25;19.50;;;;;15.80;52.15;99370.72;2103047;28;47954;-60
2022/04/24 04:19:34;;;;;;;;;17.25;17.25;;;;;15.79;52.12;99369.84;2103162;28;48316;-58
2022/04/24 04:20:35;;;;;;;;;16.25;16.25;;;;;15.79;52.39;99375.22;2103306;28;47798;-58
2022/04/24 04:21:35;;;;;;;;;19.00;18.00;;;;;15.77;52.63;99369.09;2103204;28;47151;-58
2022/04/24 04:22:52;;;;;;;;;20.75;20.25;;;;;15.77;52.66;99377.13;2103107;28;47944;-59
2022/04/24 04:23:52;;;;;;;;;20.20;19.20;;;;;15.77;52.15;99377.13;2103005;28;47638;-59
2022/04/24 04:24:53;;;;;;;;;20.00;18.25;;;;;15.75;52.77;99373.69;2102936;28;47569;-59
2022/04/24 04:25:53;;;;;;;;;18.50;18.50;;;;;15.74;52.21;99371.94;2103117;28;47482;-58
2022/04/24 04:26:54;;;;;;;;;20.00;18.25;;;;;15.73;52.30;99374.72;2103077;28;47634;-60
2022/04/24 04:27:54;;;;;;;;;17.50;16.50;;;;;15.71;52.38;99379.31;2103354;28;47610;-59
2022/04/24 04:28:55;;;;;;;;;17.75;17.75;;;;;15.71;52.83;99371.28;2102971;28;47837;-58
2022/04/24 04:29:55;;;;;;;;;22.50;20.00;;;;;15.69;52.72;99374.06;2100406;28;47754;-57
2022/04/24 04:30:56;;;;;;;;;16.50;16.50;;;;;15.69;52.61;99379.41;2095526;28;47704;-57
2022/04/24 04:31:56;;;;;;;;;20.00;18.25;;;;;15.69;52.92;99379.41;2095720;28;47696;-58
2022/04/24 04:32:56;;;;;;;;;19.00;17.50;;;;;15.69;52.84;99376.75;2095683;28;47528;-59
2022/04/24 04:33:57;;;;;;;;;19.50;17.25;;;;;15.68;52.56;99377.72;2095630;28;47928;-59
2022/04/24 04:34:57;;;;;;;;;22.25;21.50;;;;;15.68;52.32;99380.38;2095436;28;47413;-59
2022/04/24 04:35:57;;;;;;;;;20.75;20.75;;;;;15.69;52.77;99382.09;2095625;28;46526;-58
2022/04/24 04:36:58;;;;;;;;;22.75;22.00;;;;;15.69;52.85;99375.88;2095504;28;47921;-58
2022/04/24 04:37:58;;;;;;;;;19.75;19.75;;;;;15.69;52.88;99381.25;2095883;28;47547;-56
2022/04/24 04:38:59;;;;;;;;;19.00;19.00;;;;;15.68;52.61;99377.72;2095244;28;47527;-58
2022/04/24 04:40:00;;;;;;;;;18.50;18.50;;;;;15.68;52.45;99375.03;2095629;28;47955;-59